createdAt,value
2022-09-15T00:01:16.511Z,99174.47
2022-09-15T00:03:44.635Z,99172.53
2022-09-15T00:06:12.926Z,99168.22
2022-09-15T00:08:42.722Z,99165.06
2022-09-15T00:11:13.391Z,99165.84
2022-09-15T00:13:41.856Z,99165.47
2022-09-15T00:16:14.846Z,99163.94
2022-09-15T00:18:43.899Z,99169.41
2022-09-15T00:21:14.515Z,99170.56
2022-09-15T00:23:44.162Z,99165.84
2022-09-15T00:26:14.750Z,99158.03
2022-09-15T00:28:43.265Z,99157.16
2022-09-15T00:31:14.164Z,99161.44
2022-09-15T00:33:42.927Z,99158.56
2022-09-15T00:36:14.198Z,99167.13
2022-09-15T00:38:43.658Z,99165.72
2022-09-15T00:41:13.680Z,99156.00
2022-09-15T00:43:53.003Z,99155.66
2022-09-15T00:46:23.869Z,99153.34
2022-09-15T00:48:57.811Z,99146.00
2022-09-15T00:51:33.636Z,99153.03
2022-09-15T00:54:06.336Z,99141.69
2022-09-15T00:56:36.165Z,99150.72
2022-09-15T00:59:11.440Z,99149.63
2022-09-15T01:01:42.055Z,99154.38
2022-09-15T01:04:10.975Z,99149.34
2022-09-15T01:06:43.521Z,99145.41
2022-09-15T01:09:19.426Z,99140.34
2022-09-15T01:11:47.824Z,99137.22
2022-09-15T01:14:16.079Z,99139.59
2022-09-15T01:16:53.497Z,99135.25
2022-09-15T01:19:47.706Z,99134.06
2022-09-15T01:22:31.228Z,99123.53
2022-09-15T01:25:10.261Z,99122.69
2022-09-15T01:28:03.055Z,99127.78
2022-09-15T01:30:37.043Z,99124.63
2022-09-15T01:33:13.279Z,99118.41
2022-09-15T01:35:52.295Z,99127.91
2022-09-15T01:38:30.627Z,99128.00
2022-09-15T01:41:03.427Z,99118.63
2022-09-15T01:43:34.383Z,99128.44
2022-09-15T01:46:05.694Z,99126.47
2022-09-15T01:48:37.312Z,99126.91
2022-09-15T01:51:08.075Z,99121.47
2022-09-15T01:53:36.823Z,99126.56
2022-09-15T01:56:08.413Z,99132.88
2022-09-15T01:58:38.250Z,99143.84
2022-09-15T02:01:14.075Z,99141.16
2022-09-15T02:03:47.099Z,99137.28
2022-09-15T02:06:22.337Z,99128.25
2022-09-15T02:08:57.459Z,99135.66
2022-09-15T02:11:28.150Z,99123.09
2022-09-15T02:14:11.573Z,99130.13
2022-09-15T02:16:45.350Z,99132.09
2022-09-15T02:19:19.845Z,99138.28
2022-09-15T02:21:58.540Z,99142.13
2022-09-15T02:24:32.354Z,99140.59
2022-09-15T02:27:03.295Z,99143.00
2022-09-15T02:29:36.462Z,99137.56
2022-09-15T02:32:08.085Z,99138.41
2022-09-15T02:34:40.934Z,99140.41
2022-09-15T02:37:10.994Z,99143.19
2022-09-15T02:39:44.703Z,99138.91
2022-09-15T02:42:13.440Z,99138.91
2022-09-15T02:44:41.404Z,99142.44
2022-09-15T02:47:10.800Z,99134.63
2022-09-15T02:49:38.842Z,99139.31
2022-09-15T02:52:06.909Z,99136.50
2022-09-15T02:54:34.862Z,99135.69
2022-09-15T02:57:02.970Z,99131.06
2022-09-15T02:59:51.710Z,99132.66
2022-09-15T03:02:21.647Z,99130.72
2022-09-15T03:04:50.604Z,99127.22
2022-09-15T03:07:19.452Z,99126.41
2022-09-15T03:09:47.434Z,99127.56
2022-09-15T03:12:16.068Z,99127.22
2022-09-15T03:14:44.597Z,99130.75
2022-09-15T03:17:12.571Z,99138.59
2022-09-15T03:19:41.992Z,99134.28
2022-09-15T03:22:10.561Z,99138.22
2022-09-15T03:24:39.206Z,99133.13
2022-09-15T03:27:07.253Z,99136.25
2022-09-15T03:29:35.308Z,99125.28
2022-09-15T03:32:03.851Z,99126.06
2022-09-15T03:34:31.892Z,99126.84
2022-09-15T03:37:01.240Z,99128.03
2022-09-15T03:39:29.204Z,99125.34
2022-09-15T03:41:57.240Z,99135.47
2022-09-15T03:44:25.556Z,99132.38
2022-09-15T03:46:53.600Z,99128.47
2022-09-15T03:49:21.749Z,99132.34
2022-09-15T03:51:49.704Z,99136.75
2022-09-15T03:54:19.687Z,99132.47
2022-09-15T03:56:49.121Z,99129.75
2022-09-15T03:59:19.583Z,99132.50
2022-09-15T04:01:48.647Z,99139.13
2022-09-15T04:04:16.850Z,99127.78
2022-09-15T04:06:45.261Z,99130.19
2022-09-15T04:09:13.681Z,99129.06
2022-09-15T04:11:42.976Z,99126.31
2022-09-15T04:14:11.235Z,99131.78
2022-09-15T04:16:39.348Z,99133.34
2022-09-15T04:19:07.570Z,99138.41
2022-09-15T04:21:35.574Z,99140.72
2022-09-15T04:24:04.904Z,99144.16
2022-09-15T04:26:34.422Z,99139.44
2022-09-15T04:29:05.903Z,99142.16
2022-09-15T04:31:35.114Z,99134.31
2022-09-15T04:34:03.186Z,99149.53
2022-09-15T04:36:31.485Z,99154.97
2022-09-15T04:38:59.471Z,99170.59
2022-09-15T04:41:28.457Z,99175.31
2022-09-15T04:43:56.916Z,99175.28
2022-09-15T04:46:26.523Z,99173.69
2022-09-15T04:48:54.493Z,99174.47
2022-09-15T04:51:23.239Z,99176.00
2022-09-15T04:53:51.881Z,99184.59
2022-09-15T04:56:22.146Z,99180.22
2022-09-15T04:58:53.039Z,99189.34
2022-09-15T05:01:23.138Z,99196.72
2022-09-15T05:03:53.147Z,99184.16
2022-09-15T05:06:23.116Z,99175.50
2022-09-15T05:08:53.122Z,99181.19
2022-09-15T05:11:21.565Z,99176.75
2022-09-15T05:13:50.188Z,99178.69
2022-09-15T05:16:20.410Z,99182.25
2022-09-15T05:18:49.806Z,99180.75
2022-09-15T05:21:21.443Z,99188.84
2022-09-15T05:23:50.378Z,99186.75
2022-09-15T05:26:20.904Z,99186.78
2022-09-15T05:28:49.057Z,99183.75
2022-09-15T05:31:21.180Z,99180.97
2022-09-15T05:33:50.935Z,99177.53
2022-09-15T05:36:23.461Z,99180.25
2022-09-15T05:38:51.704Z,99170.00
2022-09-15T05:41:20.928Z,99171.00
2022-09-15T05:43:50.777Z,99164.22
2022-09-15T05:46:20.635Z,99169.88
2022-09-15T05:48:48.806Z,99169.78
2022-09-15T05:51:16.831Z,99165.00
2022-09-15T05:53:46.266Z,99161.66
2022-09-15T05:56:15.939Z,99157.31
2022-09-15T05:58:45.939Z,99157.06
2022-09-15T06:01:16.395Z,99159.28
2022-09-15T06:03:44.972Z,99155.63
2022-09-15T06:06:13.441Z,99166.13
2022-09-15T06:08:45.339Z,99166.84
2022-09-15T06:11:19.033Z,99166.00
2022-09-15T06:13:47.932Z,99162.63
2022-09-15T06:16:18.433Z,99155.47
2022-09-15T06:18:48.059Z,99158.72
2022-09-15T06:21:18.685Z,99157.44
2022-09-15T06:23:50.694Z,99152.94
2022-09-15T06:26:21.504Z,99149.72
2022-09-15T06:28:51.390Z,99153.25
2022-09-15T06:31:20.557Z,99144.38
2022-09-15T06:33:51.397Z,99147.22
2022-09-15T06:36:21.767Z,99150.63
2022-09-15T06:38:50.176Z,99147.38
2022-09-15T06:41:18.247Z,99154.19
2022-09-15T06:43:49.298Z,99154.63
2022-09-15T06:46:19.340Z,99148.16
2022-09-15T06:48:48.670Z,99144.69
2022-09-15T06:51:18.721Z,99142.53
2022-09-15T06:53:47.058Z,99136.34
2022-09-15T06:56:17.201Z,99132.72
2022-09-15T06:58:46.255Z,99122.63
2022-09-15T07:01:20.595Z,99125.31
2022-09-15T07:03:48.677Z,99130.63
2022-09-15T07:06:17.069Z,99131.41
2022-09-15T07:08:45.496Z,99142.06
2022-09-15T07:11:13.874Z,99132.22
2022-09-15T07:13:42.674Z,99126.41
2022-09-15T07:16:13.684Z,99129.41
2022-09-15T07:18:43.779Z,99131.94
2022-09-15T07:21:14.500Z,99135.94
2022-09-15T07:23:43.062Z,99128.47
2022-09-15T07:26:13.358Z,99126.97
2022-09-15T07:28:42.707Z,99115.06
2022-09-15T07:31:13.622Z,99113.88
2022-09-15T07:33:43.218Z,99117.78
2022-09-15T07:36:12.024Z,99116.97
2022-09-15T07:38:41.857Z,99117.28
2022-09-15T07:41:12.393Z,99121.03
2022-09-15T07:43:40.686Z,99123.31
2022-09-15T07:46:08.855Z,99128.88
2022-09-15T07:48:36.935Z,99134.75
2022-09-15T07:51:06.604Z,99138.91
2022-09-15T07:53:34.628Z,99143.94
2022-09-15T07:56:02.854Z,99134.16
2022-09-15T07:58:30.972Z,99134.72
2022-09-15T08:01:03.439Z,99134.38
2022-09-15T08:03:31.468Z,99122.78
2022-09-15T08:06:00.131Z,99117.28
2022-09-15T08:08:30.515Z,99129.28
2022-09-15T08:10:59.125Z,99126.53
2022-09-15T08:13:27.311Z,99123.34
2022-09-15T08:15:55.445Z,99114.31
2022-09-15T08:18:23.469Z,99118.06
2022-09-15T08:20:51.479Z,99115.31
2022-09-15T08:23:19.556Z,99117.19
2022-09-15T08:25:51.481Z,99127.38
2022-09-15T08:28:19.590Z,99128.94
2022-09-15T08:30:47.590Z,99121.88
2022-09-15T08:33:15.590Z,99129.94
2022-09-15T08:35:43.555Z,99124.88
2022-09-15T08:38:11.514Z,99129.16
2022-09-15T08:40:39.592Z,99135.50
2022-09-15T08:43:18.187Z,99129.16
2022-09-15T08:45:54.048Z,99133.94
2022-09-15T08:48:27.490Z,99122.50
2022-09-15T08:50:59.140Z,99124.19
2022-09-15T08:53:32.635Z,99126.41
2022-09-15T08:56:08.233Z,99120.72
2022-09-15T08:58:39.727Z,99118.06
2022-09-15T09:01:18.727Z,99123.91
2022-09-15T09:04:00.770Z,99120.94
2022-09-15T09:06:39.930Z,99126.56
2022-09-15T09:09:20.820Z,99121.25
2022-09-15T09:12:10.311Z,99115.53
2022-09-15T09:14:55.019Z,99110.88
2022-09-15T09:17:43.232Z,99112.31
2022-09-15T09:20:32.255Z,99102.03
2022-09-15T09:23:02.484Z,99097.44
2022-09-15T09:25:31.320Z,99094.97
2022-09-15T09:28:01.349Z,99097.28
2022-09-15T09:30:34.370Z,99099.16
2022-09-15T09:33:18.819Z,99083.75
2022-09-15T09:35:50.136Z,99085.88
2022-09-15T09:38:23.967Z,99070.28
2022-09-15T09:40:53.025Z,99067.66
2022-09-15T09:43:21.550Z,99064.06
2022-09-15T09:45:51.033Z,99067.53
2022-09-15T09:48:22.164Z,99061.06
2022-09-15T09:50:50.804Z,99057.88
2022-09-15T09:53:24.656Z,99050.59
2022-09-15T09:55:53.497Z,99049.84
2022-09-15T09:58:24.149Z,99050.16
2022-09-15T10:00:54.365Z,99048.31
2022-09-15T10:03:26.219Z,99039.84
2022-09-15T10:06:06.466Z,99038.13
2022-09-15T10:08:36.771Z,99031.56
2022-09-15T10:11:07.802Z,99028.53
2022-09-15T10:13:37.407Z,99026.59
2022-09-15T10:16:08.024Z,99028.41
2022-09-15T10:18:38.728Z,99013.47
2022-09-15T10:21:09.519Z,99013.38
2022-09-15T10:23:39.054Z,99011.66
2022-09-15T10:26:32.169Z,99007.72
2022-09-15T10:29:16.267Z,98997.84
2022-09-15T10:31:46.999Z,98995.88
2022-09-15T10:34:30.578Z,98990.59
2022-09-15T10:37:09.718Z,98984.31
2022-09-15T10:39:51.457Z,98985.66
2022-09-15T10:42:30.873Z,98987.19
2022-09-15T10:45:09.787Z,98985.16
2022-09-15T10:47:48.464Z,98987.22
2022-09-15T10:50:25.314Z,98994.91
2022-09-15T10:53:09.784Z,98993.19
2022-09-15T10:55:53.034Z,98987.56
2022-09-15T10:58:45.051Z,98977.16
2022-09-15T11:01:45.690Z,98970.22
2022-09-15T11:04:45.589Z,98966.22
2022-09-15T11:07:25.039Z,98967.47
2022-09-15T11:10:03.049Z,98963.41
2022-09-15T11:12:45.920Z,98959.88
2022-09-15T11:15:28.138Z,98955.81
2022-09-15T11:18:11.665Z,98956.06
2022-09-15T11:21:05.146Z,98950.19
2022-09-15T11:23:36.347Z,98943.63
2022-09-15T11:26:09.392Z,98940.56
2022-09-15T11:28:42.486Z,98942.38
2022-09-15T11:31:15.590Z,98945.41
2022-09-15T11:33:48.223Z,98937.78
2022-09-15T11:36:21.263Z,98937.50
2022-09-15T11:38:55.169Z,98929.88
2022-09-15T11:41:31.142Z,98914.03
2022-09-15T11:44:16.182Z,98924.25
2022-09-15T11:47:07.686Z,98919.09
2022-09-15T11:49:41.933Z,98924.69
2022-09-15T11:52:36.707Z,98922.09
2022-09-15T11:55:16.791Z,98913.47
2022-09-15T11:57:52.263Z,98906.09
2022-09-15T12:00:21.982Z,98898.75
2022-09-15T12:02:57.275Z,98890.81
2022-09-15T12:05:32.103Z,98886.00
2022-09-15T12:08:07.349Z,98873.69
2022-09-15T12:10:41.661Z,98866.47
2022-09-15T12:13:16.814Z,98866.69
2022-09-15T12:15:45.628Z,98865.56
2022-09-15T12:18:38.104Z,98872.59
2022-09-15T12:21:15.833Z,98866.00
2022-09-15T12:23:53.313Z,98870.38
2022-09-15T12:26:23.499Z,98868.03
2022-09-15T12:28:57.375Z,98862.53
2022-09-15T12:31:38.051Z,98858.41
2022-09-15T12:34:23.279Z,98853.84
2022-09-15T12:36:53.824Z,98846.69
2022-09-15T12:39:31.790Z,98838.75
2022-09-15T12:42:25.101Z,98839.06
2022-09-15T12:44:57.077Z,98835.91
2022-09-15T12:47:32.972Z,98834.84
2022-09-15T12:50:07.420Z,98818.34
2022-09-15T12:52:45.874Z,98822.94
2022-09-15T12:55:24.018Z,98825.03
2022-09-15T12:57:57.980Z,98825.03
2022-09-15T13:00:54.766Z,98829.91
2022-09-15T13:03:50.242Z,98824.97
2022-09-15T13:06:21.602Z,98820.53
2022-09-15T13:08:52.026Z,98821.03
2022-09-15T13:11:31.854Z,98822.03
2022-09-15T13:14:14.779Z,98816.59
2022-09-15T13:16:51.854Z,98814.75
2022-09-15T13:19:23.729Z,98811.72
2022-09-15T13:21:59.809Z,98807.59
2022-09-15T13:24:38.921Z,98808.06
2022-09-15T13:27:09.644Z,98801.91
2022-09-15T13:29:46.529Z,98804.19
2022-09-15T13:32:32.834Z,98795.16
2022-09-15T13:35:20.834Z,98794.88
2022-09-15T13:38:14.016Z,98789.38
2022-09-15T13:41:39.728Z,98788.59
2022-09-15T13:44:35.793Z,98786.28
2022-09-15T13:47:24.489Z,98783.13
2022-09-15T13:49:56.839Z,98775.94
2022-09-15T13:52:54.734Z,98766.97
2022-09-15T13:55:28.254Z,98779.66
2022-09-15T14:00:59.867Z,98779.53
2022-09-15T14:03:37.009Z,98768.72
2022-09-15T14:06:13.748Z,98770.13
2022-09-15T14:08:43.440Z,98758.72
2022-09-15T14:11:14.518Z,98759.91
2022-09-15T14:13:46.046Z,98763.78
2022-09-15T14:16:30.587Z,98765.34
2022-09-15T14:19:00.225Z,98757.88
2022-09-15T14:21:29.712Z,98754.28
2022-09-15T14:23:59.719Z,98749.72
2022-09-15T14:26:30.283Z,98750.88
2022-09-15T14:29:00.184Z,98748.19
2022-09-15T14:31:31.718Z,98740.59
2022-09-15T14:34:00.025Z,98751.59
2022-09-15T14:36:31.122Z,98749.03
2022-09-15T14:39:09.096Z,98750.44
2022-09-15T14:41:37.804Z,98747.53
2022-09-15T14:47:24.527Z,98748.19
2022-09-15T14:50:07.911Z,98743.03
2022-09-15T14:52:41.629Z,98740.97
2022-09-15T14:55:16.645Z,98743.78
2022-09-15T14:57:52.183Z,98737.94
2022-09-15T15:00:23.716Z,98738.09
2022-09-15T15:03:03.805Z,98737.94
2022-09-15T15:05:36.687Z,98735.44
2022-09-15T15:08:08.314Z,98742.88
2022-09-15T15:10:37.638Z,98738.91
2022-09-15T15:13:14.217Z,98739.97
2022-09-15T15:15:43.405Z,98735.81
2022-09-15T15:18:32.200Z,98741.66
2022-09-15T15:21:00.467Z,98742.47
2022-09-15T15:23:29.425Z,98737.91
2022-09-15T15:26:34.509Z,98730.50
2022-09-15T15:29:02.723Z,98738.09
2022-09-15T15:31:31.443Z,98733.09
2022-09-15T15:34:05.605Z,98726.75
2022-09-15T15:36:35.867Z,98730.63
2022-09-15T15:39:06.783Z,98739.13
2022-09-15T15:41:37.405Z,98738.44
2022-09-15T15:44:08.932Z,98735.94
2022-09-15T15:46:52.489Z,98730.13
2022-09-15T15:49:25.963Z,98732.00
2022-09-15T15:52:02.864Z,98723.41
2022-09-15T15:54:31.935Z,98733.50
2022-09-15T15:57:21.668Z,98727.44
2022-09-15T15:59:49.680Z,98724.44
2022-09-15T16:02:17.837Z,98727.28
2022-09-15T16:04:47.361Z,98727.63
2022-09-15T16:07:19.010Z,98727.94
2022-09-15T16:09:48.547Z,98719.81
2022-09-15T16:12:16.718Z,98727.81
2022-09-15T16:14:44.845Z,98722.00
2022-09-15T16:17:12.855Z,98722.53
2022-09-15T16:19:40.896Z,98729.97
2022-09-15T16:22:16.745Z,98729.56
2022-09-15T16:24:44.766Z,98732.44
2022-09-15T16:27:16.474Z,98735.81
2022-09-15T16:29:45.006Z,98743.44
2022-09-15T16:32:19.312Z,98740.97
2022-09-15T16:34:47.953Z,98739.72
2022-09-15T16:37:18.595Z,98741.00
2022-09-15T16:39:46.726Z,98742.00
2022-09-15T16:42:14.898Z,98742.53
2022-09-15T16:44:46.389Z,98745.31
2022-09-15T16:47:14.473Z,98750.38
2022-09-15T16:49:42.759Z,98749.09
2022-09-15T16:52:13.905Z,98742.22
2022-09-15T16:54:44.571Z,98742.19
2022-09-15T16:57:12.567Z,98745.19
2022-09-15T16:59:40.641Z,98753.06
2022-09-15T17:02:14.724Z,98754.81
2022-09-15T17:04:42.871Z,98758.59
2022-09-15T17:07:10.995Z,98758.00
2022-09-15T17:09:39.014Z,98764.56
2022-09-15T17:12:10.466Z,98758.44
2022-09-15T17:14:39.146Z,98758.13
2022-09-15T17:17:07.727Z,98757.81
2022-09-15T17:19:35.797Z,98753.97
2022-09-15T17:22:03.892Z,98752.13
2022-09-15T17:24:31.929Z,98762.69
2022-09-15T17:27:00.271Z,98763.66
2022-09-15T17:29:29.738Z,98760.28
2022-09-15T17:31:57.837Z,98752.09
2022-09-15T17:34:25.909Z,98751.78
2022-09-15T17:36:54.031Z,98757.03
2022-09-15T17:39:22.175Z,98753.66
2022-09-15T17:41:50.989Z,98755.31
2022-09-15T17:44:19.173Z,98750.97
2022-09-15T17:46:49.396Z,98748.63
2022-09-15T17:49:17.965Z,98757.41
2022-09-15T17:51:45.982Z,98756.59
2022-09-15T17:54:14.087Z,98764.09
2022-09-15T17:56:42.368Z,98754.69
2022-09-15T17:59:14.316Z,98748.94
2022-09-15T18:01:44.879Z,98758.47
2022-09-15T18:04:14.660Z,98758.91
2022-09-15T18:06:45.546Z,98760.59
2022-09-15T18:09:14.861Z,98758.69
2022-09-15T18:11:42.949Z,98756.31
2022-09-15T18:14:12.045Z,98751.16
2022-09-15T18:16:41.987Z,98758.69
2022-09-15T18:19:10.987Z,98757.06
2022-09-15T18:21:40.506Z,98759.97
2022-09-15T18:24:10.769Z,98757.06
2022-09-15T18:26:38.789Z,98755.47
2022-09-15T18:29:06.923Z,98754.13
2022-09-15T18:31:35.192Z,98750.03
2022-09-15T18:34:03.271Z,98751.47
2022-09-15T18:36:31.448Z,98754.94
2022-09-15T18:39:01.251Z,98770.34
2022-09-15T18:41:29.368Z,98765.00
2022-09-15T18:43:57.747Z,98764.16
2022-09-15T18:46:25.899Z,98763.56
2022-09-15T18:48:54.125Z,98762.41
2022-09-15T18:51:29.174Z,98759.47
2022-09-15T18:54:04.527Z,98767.22
2022-09-15T18:56:32.632Z,98752.09
2022-09-15T18:59:00.737Z,98753.97
2022-09-15T19:01:29.067Z,98754.19
2022-09-15T19:03:58.343Z,98757.03
2022-09-15T19:06:29.785Z,98758.97
2022-09-15T19:08:58.406Z,98761.75
2022-09-15T19:11:29.363Z,98759.53
2022-09-15T19:13:57.845Z,98767.78
2022-09-15T19:16:34.702Z,98763.94
2022-09-15T19:19:08.612Z,98756.47
2022-09-15T19:21:37.455Z,98752.63
2022-09-15T19:24:05.823Z,98761.16
2022-09-15T19:26:35.346Z,98754.72
2022-09-15T19:29:04.267Z,98755.50
2022-09-15T19:31:32.720Z,98754.44
2022-09-15T19:34:00.804Z,98752.03
2022-09-15T19:36:29.405Z,98747.41
2022-09-15T19:38:58.073Z,98750.28
2022-09-15T19:41:26.554Z,98745.94
2022-09-15T19:43:56.069Z,98746.25
2022-09-15T19:46:26.211Z,98749.91
2022-09-15T19:48:55.283Z,98747.97
2022-09-15T19:51:23.915Z,98744.91
2022-09-15T19:53:55.231Z,98738.00
2022-09-15T19:56:26.319Z,98744.03
2022-09-15T19:58:57.085Z,98745.44
2022-09-15T20:01:27.377Z,98740.03
2022-09-15T20:03:57.038Z,98747.19
2022-09-15T20:06:28.946Z,98748.81
2022-09-15T20:09:00.228Z,98750.53
2022-09-15T20:11:29.669Z,98744.28
2022-09-15T20:13:59.696Z,98758.50
2022-09-15T20:16:28.531Z,98757.03
2022-09-15T20:18:56.970Z,98750.59
2022-09-15T20:21:46.288Z,98751.38
2022-09-15T20:24:18.996Z,98754.66
2022-09-15T20:26:47.383Z,98763.00
2022-09-15T20:29:17.208Z,98755.50
2022-09-15T20:31:45.210Z,98751.22
2022-09-15T20:34:13.340Z,98746.03
2022-09-15T20:36:41.629Z,98746.34
2022-09-15T20:39:13.212Z,98742.97
2022-09-15T20:41:42.255Z,98746.81
2022-09-15T20:44:10.321Z,98745.75
2022-09-15T20:46:39.792Z,98744.69
2022-09-15T20:49:09.033Z,98751.59
2022-09-15T20:51:37.149Z,98737.13
2022-09-15T20:54:06.232Z,98739.75
2022-09-15T20:56:36.298Z,98742.09
2022-09-15T20:59:06.122Z,98742.72
2022-09-15T21:01:36.357Z,98744.88
2022-09-15T21:04:06.936Z,98745.78
2022-09-15T21:06:35.973Z,98756.56
2022-09-15T21:09:05.838Z,98742.44
2022-09-15T21:11:33.951Z,98739.34
2022-09-15T21:14:03.685Z,98738.25
2022-09-15T21:16:33.877Z,98751.34
2022-09-15T21:19:02.491Z,98751.66
2022-09-15T21:21:33.642Z,98744.09
2022-09-15T21:24:04.160Z,98734.44
2022-09-15T21:26:34.118Z,98740.41
2022-09-15T21:29:02.764Z,98736.88
2022-09-15T21:31:33.319Z,98732.88
2022-09-15T21:34:01.416Z,98730.28
2022-09-15T21:36:32.217Z,98734.28
2022-09-15T21:39:03.021Z,98728.44
2022-09-15T21:41:31.278Z,98733.66
2022-09-15T21:44:01.078Z,98739.66
2022-09-15T21:46:30.458Z,98739.78
2022-09-15T21:49:00.576Z,98736.88
2022-09-15T21:51:31.349Z,98731.47
2022-09-15T21:54:01.077Z,98728.09
2022-09-15T21:56:30.361Z,98729.47
2022-09-15T21:58:58.503Z,98730.84
2022-09-15T22:01:29.266Z,98742.81
2022-09-15T22:03:59.900Z,98754.50
2022-09-15T22:06:31.745Z,98757.09
2022-09-15T22:09:02.105Z,98762.63
2022-09-15T22:11:30.337Z,98754.16
2022-09-15T22:13:58.800Z,98754.75
2022-09-15T22:16:27.165Z,98755.22
2022-09-15T22:18:55.622Z,98755.81
2022-09-15T22:21:26.184Z,98752.72
2022-09-15T22:23:56.772Z,98750.13
2022-09-15T22:26:28.479Z,98738.88
2022-09-15T22:28:57.207Z,98737.16
2022-09-15T22:31:26.159Z,98731.09
2022-09-15T22:33:54.906Z,98738.91
2022-09-15T22:36:28.977Z,98732.75
2022-09-15T22:39:04.130Z,98732.88
2022-09-15T22:41:36.687Z,98741.78
2022-09-15T22:44:05.319Z,98738.81
2022-09-15T22:46:33.556Z,98746.97
2022-09-15T22:49:01.978Z,98773.13
2022-09-15T22:51:30.410Z,98781.88
2022-09-15T22:53:59.376Z,98767.50
2022-09-15T22:56:27.743Z,98761.47
2022-09-15T22:58:57.774Z,98767.91
2022-09-15T23:01:28.402Z,98769.91
2022-09-15T23:04:02.106Z,98778.47
2022-09-15T23:06:32.498Z,98774.81
2022-09-15T23:09:03.405Z,98770.66
2022-09-15T23:11:33.413Z,98765.72
2022-09-15T23:14:03.238Z,98785.88
2022-09-15T23:16:31.665Z,98784.09
2022-09-15T23:19:00.709Z,98777.13
2022-09-15T23:21:29.108Z,98768.34
2022-09-15T23:23:57.515Z,98771.44
2022-09-15T23:26:26.874Z,98760.63
2022-09-15T23:28:55.043Z,98763.84
2022-09-15T23:31:24.589Z,98760.56
2022-09-15T23:33:52.769Z,98759.63
2022-09-15T23:36:21.228Z,98760.59
2022-09-15T23:38:49.928Z,98759.22
2022-09-15T23:41:19.157Z,98769.16
2022-09-15T23:43:47.682Z,98761.88
2022-09-15T23:46:15.841Z,98758.63
2022-09-15T23:48:45.406Z,98763.94
2022-09-15T23:51:13.373Z,98761.63
2022-09-15T23:53:41.376Z,98753.47
2022-09-15T23:56:10.403Z,98767.81
2022-09-15T23:58:38.927Z,98767.16
